sensor_id;sensor_type;location;lat;lon;timestamp;P1;durP1;ratioP1;P2;durP2;ratioP2
13234;SDS011;6683;48.506;9.050;2023-06-22T00:00:14;5.80;;;4.80;;
13234;SDS011;6683;48.506;9.050;2023-06-22T00:03:17;5.20;;;4.70;;
13234;SDS011;6683;48.506;9.050;2023-06-22T00:06:20;5.25;;;4.68;;
13234;SDS011;6683;48.506;9.050;2023-06-22T00:09:22;5.28;;;4.47;;
13234;SDS011;6683;48.506;9.050;2023-06-22T00:12:26;5.68;;;4.97;;
13234;SDS011;6683;48.506;9.050;2023-06-22T00:15:28;5.10;;;4.60;;
13234;SDS011;6683;48.506;9.050;2023-06-22T00:18:31;4.63;;;3.95;;
13234;SDS011;6683;48.506;9.050;2023-06-22T00:21:33;5.20;;;4.70;;
13234;SDS011;6683;48.506;9.050;2023-06-22T00:24:35;6.28;;;4.32;;
13234;SDS011;6683;48.506;9.050;2023-06-22T00:27:39;6.25;;;5.28;;
13234;SDS011;6683;48.506;9.050;2023-06-22T00:30:41;7.43;;;4.83;;
13234;SDS011;6683;48.506;9.050;2023-06-22T00:33:45;4.65;;;4.25;;
13234;SDS011;6683;48.506;9.050;2023-06-22T00:36:50;6.50;;;4.47;;
13234;SDS011;6683;48.506;9.050;2023-06-22T00:39:52;4.73;;;4.33;;
13234;SDS011;6683;48.506;9.050;2023-06-22T00:42:56;4.97;;;4.50;;
13234;SDS011;6683;48.506;9.050;2023-06-22T00:45:59;5.40;;;4.80;;
13234;SDS011;6683;48.506;9.050;2023-06-22T00:49:02;5.22;;;4.72;;
13234;SDS011;6683;48.506;9.050;2023-06-22T00:52:05;7.63;;;5.07;;
13234;SDS011;6683;48.506;9.050;2023-06-22T00:55:09;5.60;;;4.60;;
13234;SDS011;6683;48.506;9.050;2023-06-22T00:58:13;6.23;;;5.00;;
13234;SDS011;6683;48.506;9.050;2023-06-22T01:01:15;6.50;;;5.30;;
13234;SDS011;6683;48.506;9.050;2023-06-22T01:04:21;5.97;;;5.13;;
13234;SDS011;6683;48.506;9.050;2023-06-22T01:07:35;5.77;;;5.00;;
13234;SDS011;6683;48.506;9.050;2023-06-22T01:10:44;6.27;;;4.80;;
13234;SDS011;6683;48.506;9.050;2023-06-22T01:13:55;7.20;;;5.23;;
13234;SDS011;6683;48.506;9.050;2023-06-22T01:17:05;6.83;;;4.43;;
13234;SDS011;6683;48.506;9.050;2023-06-22T01:20:10;4.67;;;4.27;;
13234;SDS011;6683;48.506;9.050;2023-06-22T01:23:19;6.67;;;4.97;;
13234;SDS011;6683;48.506;9.050;2023-06-22T01:26:34;5.40;;;4.93;;
13234;SDS011;6683;48.506;9.050;2023-06-22T01:29:44;5.53;;;4.97;;
13234;SDS011;6683;48.506;9.050;2023-06-22T01:32:47;6.27;;;5.67;;
13234;SDS011;6683;48.506;9.050;2023-06-22T01:35:51;5.13;;;4.73;;
13234;SDS011;6683;48.506;9.050;2023-06-22T01:38:53;6.40;;;4.50;;
13234;SDS011;6683;48.506;9.050;2023-06-22T01:41:58;4.97;;;4.43;;
13234;SDS011;6683;48.506;9.050;2023-06-22T01:45:03;6.97;;;5.00;;
13234;SDS011;6683;48.506;9.050;2023-06-22T01:48:08;5.73;;;5.00;;
13234;SDS011;6683;48.506;9.050;2023-06-22T01:51:11;5.03;;;4.47;;
13234;SDS011;6683;48.506;9.050;2023-06-22T01:54:13;5.57;;;5.00;;
13234;SDS011;6683;48.506;9.050;2023-06-22T01:57:15;5.03;;;4.60;;
13234;SDS011;6683;48.506;9.050;2023-06-22T02:00:20;5.70;;;4.90;;
13234;SDS011;6683;48.506;9.050;2023-06-22T02:03:26;6.53;;;5.03;;
13234;SDS011;6683;48.506;9.050;2023-06-22T02:06:34;5.17;;;4.67;;
13234;SDS011;6683;48.506;9.050;2023-06-22T02:09:40;5.97;;;5.23;;
13234;SDS011;6683;48.506;9.050;2023-06-22T02:12:46;5.43;;;4.93;;
13234;SDS011;6683;48.506;9.050;2023-06-22T02:15:52;6.33;;;5.27;;
13234;SDS011;6683;48.506;9.050;2023-06-22T02:18:55;6.00;;;4.90;;
13234;SDS011;6683;48.506;9.050;2023-06-22T02:22:03;5.93;;;5.27;;
13234;SDS011;6683;48.506;9.050;2023-06-22T02:25:06;6.13;;;5.53;;
13234;SDS011;6683;48.506;9.050;2023-06-22T02:28:09;5.50;;;4.70;;
13234;SDS011;6683;48.506;9.050;2023-06-22T02:31:12;6.93;;;5.20;;
13234;SDS011;6683;48.506;9.050;2023-06-22T02:34:16;6.13;;;5.27;;
13234;SDS011;6683;48.506;9.050;2023-06-22T02:37:19;7.03;;;5.17;;
13234;SDS011;6683;48.506;9.050;2023-06-22T02:40:25;6.07;;;4.83;;
13234;SDS011;6683;48.506;9.050;2023-06-22T02:43:27;5.53;;;4.90;;
13234;SDS011;6683;48.506;9.050;2023-06-22T02:46:31;6.20;;;5.40;;
13234;SDS011;6683;48.506;9.050;2023-06-22T02:49:34;7.33;;;5.50;;
13234;SDS011;6683;48.506;9.050;2023-06-22T02:52:37;5.37;;;4.80;;
13234;SDS011;6683;48.506;9.050;2023-06-22T02:55:39;6.70;;;5.77;;
13234;SDS011;6683;48.506;9.050;2023-06-22T02:58:42;6.70;;;5.40;;
13234;SDS011;6683;48.506;9.050;2023-06-22T03:01:45;5.27;;;4.80;;
13234;SDS011;6683;48.506;9.050;2023-06-22T03:04:49;6.23;;;5.40;;
13234;SDS011;6683;48.506;9.050;2023-06-22T03:07:53;5.80;;;5.27;;
13234;SDS011;6683;48.506;9.050;2023-06-22T03:10:55;6.00;;;5.30;;
13234;SDS011;6683;48.506;9.050;2023-06-22T03:13:58;6.03;;;5.23;;
13234;SDS011;6683;48.506;9.050;2023-06-22T03:17:03;7.67;;;5.43;;
13234;SDS011;6683;48.506;9.050;2023-06-22T03:20:06;7.00;;;5.10;;
13234;SDS011;6683;48.506;9.050;2023-06-22T03:23:11;6.00;;;5.00;;
13234;SDS011;6683;48.506;9.050;2023-06-22T03:26:16;6.10;;;5.50;;
13234;SDS011;6683;48.506;9.050;2023-06-22T03:29:19;7.10;;;5.33;;
13234;SDS011;6683;48.506;9.050;2023-06-22T03:32:23;6.93;;;5.80;;
13234;SDS011;6683;48.506;9.050;2023-06-22T03:35:28;6.20;;;5.30;;
13234;SDS011;6683;48.506;9.050;2023-06-22T03:38:30;5.77;;;5.17;;
13234;SDS011;6683;48.506;9.050;2023-06-22T03:41:32;6.37;;;5.33;;
13234;SDS011;6683;48.506;9.050;2023-06-22T03:44:34;5.80;;;4.70;;
13234;SDS011;6683;48.506;9.050;2023-06-22T03:47:39;6.53;;;5.10;;
13234;SDS011;6683;48.506;9.050;2023-06-22T03:50:41;7.87;;;4.93;;
13234;SDS011;6683;48.506;9.050;2023-06-22T03:53:44;6.13;;;5.20;;
13234;SDS011;6683;48.506;9.050;2023-06-22T03:56:46;5.37;;;4.87;;
13234;SDS011;6683;48.506;9.050;2023-06-22T03:59:48;5.90;;;5.33;;
13234;SDS011;6683;48.506;9.050;2023-06-22T04:02:52;6.60;;;5.37;;
13234;SDS011;6683;48.506;9.050;2023-06-22T04:05:54;6.33;;;5.60;;
13234;SDS011;6683;48.506;9.050;2023-06-22T04:08:56;6.83;;;5.50;;
13234;SDS011;6683;48.506;9.050;2023-06-22T04:11:59;6.80;;;5.40;;
13234;SDS011;6683;48.506;9.050;2023-06-22T04:15:03;6.73;;;5.63;;
13234;SDS011;6683;48.506;9.050;2023-06-22T04:18:08;7.20;;;5.80;;
13234;SDS011;6683;48.506;9.050;2023-06-22T04:21:10;5.93;;;4.90;;
13234;SDS011;6683;48.506;9.050;2023-06-22T04:24:13;7.87;;;5.60;;
13234;SDS011;6683;48.506;9.050;2023-06-22T04:27:15;5.73;;;5.23;;
13234;SDS011;6683;48.506;9.050;2023-06-22T04:30:18;6.93;;;5.20;;
13234;SDS011;6683;48.506;9.050;2023-06-22T04:33:22;6.00;;;5.40;;
13234;SDS011;6683;48.506;9.050;2023-06-22T04:36:25;6.43;;;5.63;;
13234;SDS011;6683;48.506;9.050;2023-06-22T04:39:30;6.27;;;5.33;;
13234;SDS011;6683;48.506;9.050;2023-06-22T04:42:33;6.43;;;5.37;;
13234;SDS011;6683;48.506;9.050;2023-06-22T04:45:37;7.03;;;5.83;;
13234;SDS011;6683;48.506;9.050;2023-06-22T04:48:41;8.40;;;6.17;;
13234;SDS011;6683;48.506;9.050;2023-06-22T04:51:43;6.20;;;5.60;;
13234;SDS011;6683;48.506;9.050;2023-06-22T04:54:45;5.50;;;5.00;;
13234;SDS011;6683;48.506;9.050;2023-06-22T04:57:50;10.23;;;6.03;;
13234;SDS011;6683;48.506;9.050;2023-06-22T05:00:53;6.37;;;5.77;;
13234;SDS011;6683;48.506;9.050;2023-06-22T05:03:58;8.47;;;6.27;;
13234;SDS011;6683;48.506;9.050;2023-06-22T05:07:02;6.03;;;5.53;;
13234;SDS011;6683;48.506;9.050;2023-06-22T05:10:06;6.87;;;5.77;;
13234;SDS011;6683;48.506;9.050;2023-06-22T05:13:09;6.87;;;5.97;;
13234;SDS011;6683;48.506;9.050;2023-06-22T05:16:11;7.47;;;5.87;;
13234;SDS011;6683;48.506;9.050;2023-06-22T05:19:16;6.60;;;5.70;;
13234;SDS011;6683;48.506;9.050;2023-06-22T05:22:18;7.17;;;6.03;;
13234;SDS011;6683;48.506;9.050;2023-06-22T05:25:20;12.33;;;6.73;;
13234;SDS011;6683;48.506;9.050;2023-06-22T05:28:23;6.87;;;6.27;;
13234;SDS011;6683;48.506;9.050;2023-06-22T05:31:26;10.40;;;7.60;;
13234;SDS011;6683;48.506;9.050;2023-06-22T05:34:30;7.97;;;6.67;;
13234;SDS011;6683;48.506;9.050;2023-06-22T05:37:33;8.50;;;6.73;;
13234;SDS011;6683;48.506;9.050;2023-06-22T05:40:36;9.53;;;7.27;;
13234;SDS011;6683;48.506;9.050;2023-06-22T05:43:38;7.78;;;6.93;;
13234;SDS011;6683;48.506;9.050;2023-06-22T05:46:41;7.60;;;6.43;;
13234;SDS011;6683;48.506;9.050;2023-06-22T05:49:47;6.82;;;6.18;;
13234;SDS011;6683;48.506;9.050;2023-06-22T05:52:49;6.95;;;6.20;;
13234;SDS011;6683;48.506;9.050;2023-06-22T05:55:52;8.10;;;6.68;;
13234;SDS011;6683;48.506;9.050;2023-06-22T05:58:54;7.57;;;6.22;;
13234;SDS011;6683;48.506;9.050;2023-06-22T06:01:57;7.35;;;6.63;;
13234;SDS011;6683;48.506;9.050;2023-06-22T06:05:00;6.85;;;6.10;;
13234;SDS011;6683;48.506;9.050;2023-06-22T06:08:04;8.48;;;6.50;;
13234;SDS011;6683;48.506;9.050;2023-06-22T06:11:07;7.55;;;5.82;;
13234;SDS011;6683;48.506;9.050;2023-06-22T06:14:10;6.95;;;6.13;;
13234;SDS011;6683;48.506;9.050;2023-06-22T06:17:12;7.60;;;5.93;;
13234;SDS011;6683;48.506;9.050;2023-06-22T06:20:17;9.70;;;6.85;;
13234;SDS011;6683;48.506;9.050;2023-06-22T06:23:21;6.97;;;6.30;;
13234;SDS011;6683;48.506;9.050;2023-06-22T06:26:23;7.25;;;6.50;;
13234;SDS011;6683;48.506;9.050;2023-06-22T06:29:29;7.10;;;6.40;;
13234;SDS011;6683;48.506;9.050;2023-06-22T06:32:32;7.10;;;6.30;;
13234;SDS011;6683;48.506;9.050;2023-06-22T06:35:36;8.13;;;5.95;;
13234;SDS011;6683;48.506;9.050;2023-06-22T06:38:38;7.28;;;5.95;;
13234;SDS011;6683;48.506;9.050;2023-06-22T06:41:40;8.55;;;6.20;;
13234;SDS011;6683;48.506;9.050;2023-06-22T06:44:43;5.75;;;5.15;;
13234;SDS011;6683;48.506;9.050;2023-06-22T06:47:45;5.97;;;4.97;;
13234;SDS011;6683;48.506;9.050;2023-06-22T06:50:49;5.93;;;5.38;;
13234;SDS011;6683;48.506;9.050;2023-06-22T06:53:52;8.50;;;6.45;;
13234;SDS011;6683;48.506;9.050;2023-06-22T06:56:54;8.15;;;6.18;;
13234;SDS011;6683;48.506;9.050;2023-06-22T06:59:57;5.57;;;4.93;;
13234;SDS011;6683;48.506;9.050;2023-06-22T07:02:59;7.15;;;4.97;;
13234;SDS011;6683;48.506;9.050;2023-06-22T07:06:04;6.65;;;4.95;;
13234;SDS011;6683;48.506;9.050;2023-06-22T07:09:06;5.20;;;4.70;;
13234;SDS011;6683;48.506;9.050;2023-06-22T07:12:09;5.82;;;4.30;;
13234;SDS011;6683;48.506;9.050;2023-06-22T07:15:11;7.72;;;5.47;;
13234;SDS011;6683;48.506;9.050;2023-06-22T07:18:14;5.22;;;3.95;;
13234;SDS011;6683;48.506;9.050;2023-06-22T07:21:18;5.75;;;4.40;;
13234;SDS011;6683;48.506;9.050;2023-06-22T07:24:20;5.50;;;4.40;;
13234;SDS011;6683;48.506;9.050;2023-06-22T07:27:23;4.63;;;4.13;;
13234;SDS011;6683;48.506;9.050;2023-06-22T07:30:26;5.75;;;4.32;;
13234;SDS011;6683;48.506;9.050;2023-06-22T07:33:29;4.68;;;4.00;;
13234;SDS011;6683;48.506;9.050;2023-06-22T07:36:32;5.00;;;4.45;;
13234;SDS011;6683;48.506;9.050;2023-06-22T07:39:35;5.72;;;3.95;;
13234;SDS011;6683;48.506;9.050;2023-06-22T07:42:38;4.70;;;4.00;;
13234;SDS011;6683;48.506;9.050;2023-06-22T07:45:40;5.90;;;4.10;;
13234;SDS011;6683;48.506;9.050;2023-06-22T07:48:52;5.50;;;3.63;;
13234;SDS011;6683;48.506;9.050;2023-06-22T07:51:55;6.32;;;3.97;;
13234;SDS011;6683;48.506;9.050;2023-06-22T07:54:58;3.97;;;3.38;;
13234;SDS011;6683;48.506;9.050;2023-06-22T07:58:00;4.88;;;3.70;;
13234;SDS011;6683;48.506;9.050;2023-06-22T08:01:03;4.80;;;3.83;;
13234;SDS011;6683;48.506;9.050;2023-06-22T08:04:06;5.80;;;3.65;;
13234;SDS011;6683;48.506;9.050;2023-06-22T08:07:10;9.27;;;3.95;;
13234;SDS011;6683;48.506;9.050;2023-06-22T08:10:12;4.90;;;3.92;;
13234;SDS011;6683;48.506;9.050;2023-06-22T08:13:14;4.45;;;3.83;;
13234;SDS011;6683;48.506;9.050;2023-06-22T08:16:17;6.57;;;4.03;;
13234;SDS011;6683;48.506;9.050;2023-06-22T08:19:20;5.53;;;4.00;;
13234;SDS011;6683;48.506;9.050;2023-06-22T08:22:25;4.82;;;4.15;;
13234;SDS011;6683;48.506;9.050;2023-06-22T08:25:27;6.70;;;4.45;;
13234;SDS011;6683;48.506;9.050;2023-06-22T08:28:29;5.10;;;3.92;;
13234;SDS011;6683;48.506;9.050;2023-06-22T08:31:32;6.78;;;4.47;;
13234;SDS011;6683;48.506;9.050;2023-06-22T08:34:35;6.15;;;4.32;;
13234;SDS011;6683;48.506;9.050;2023-06-22T08:37:43;5.80;;;4.20;;
13234;SDS011;6683;48.506;9.050;2023-06-22T08:40:50;5.93;;;4.28;;
13234;SDS011;6683;48.506;9.050;2023-06-22T08:43:53;8.13;;;5.30;;
13234;SDS011;6683;48.506;9.050;2023-06-22T08:46:56;4.93;;;4.30;;
13234;SDS011;6683;48.506;9.050;2023-06-22T08:49:58;6.07;;;4.20;;
13234;SDS011;6683;48.506;9.050;2023-06-22T08:53:04;4.90;;;4.05;;
13234;SDS011;6683;48.506;9.050;2023-06-22T08:56:06;5.13;;;4.43;;
13234;SDS011;6683;48.506;9.050;2023-06-22T08:59:08;5.45;;;4.35;;
13234;SDS011;6683;48.506;9.050;2023-06-22T09:02:11;5.25;;;4.40;;
13234;SDS011;6683;48.506;9.050;2023-06-22T09:05:13;4.80;;;4.28;;
13234;SDS011;6683;48.506;9.050;2023-06-22T09:08:18;4.57;;;4.15;;
13234;SDS011;6683;48.506;9.050;2023-06-22T09:11:20;7.75;;;4.43;;
13234;SDS011;6683;48.506;9.050;2023-06-22T09:14:23;4.63;;;3.75;;
13234;SDS011;6683;48.506;9.050;2023-06-22T09:17:26;5.72;;;4.28;;
13234;SDS011;6683;48.506;9.050;2023-06-22T09:20:29;5.97;;;4.47;;
13234;SDS011;6683;48.506;9.050;2023-06-22T09:23:33;4.82;;;4.18;;
13234;SDS011;6683;48.506;9.050;2023-06-22T09:26:36;5.00;;;4.30;;
13234;SDS011;6683;48.506;9.050;2023-06-22T09:29:39;6.05;;;4.10;;
13234;SDS011;6683;48.506;9.050;2023-06-22T09:32:41;4.57;;;3.95;;
13234;SDS011;6683;48.506;9.050;2023-06-22T09:35:44;5.78;;;4.20;;
13234;SDS011;6683;48.506;9.050;2023-06-22T09:38:48;7.82;;;4.45;;
13234;SDS011;6683;48.506;9.050;2023-06-22T09:41:55;5.53;;;4.03;;
13234;SDS011;6683;48.506;9.050;2023-06-22T09:44:59;5.95;;;4.85;;
13234;SDS011;6683;48.506;9.050;2023-06-22T09:48:01;5.07;;;4.25;;
13234;SDS011;6683;48.506;9.050;2023-06-22T09:51:04;5.05;;;4.25;;
13234;SDS011;6683;48.506;9.050;2023-06-22T09:54:08;5.35;;;4.10;;
13234;SDS011;6683;48.506;9.050;2023-06-22T09:57:10;4.57;;;4.18;;
13234;SDS011;6683;48.506;9.050;2023-06-22T10:00:13;6.15;;;4.45;;
13234;SDS011;6683;48.506;9.050;2023-06-22T10:03:19;5.97;;;4.10;;
13234;SDS011;6683;48.506;9.050;2023-06-22T10:06:22;6.32;;;4.40;;
13234;SDS011;6683;48.506;9.050;2023-06-22T10:09:26;5.57;;;4.03;;
13234;SDS011;6683;48.506;9.050;2023-06-22T10:12:29;5.47;;;4.10;;
13234;SDS011;6683;48.506;9.050;2023-06-22T10:15:31;7.63;;;4.80;;
13234;SDS011;6683;48.506;9.050;2023-06-22T10:18:33;4.50;;;4.10;;
13234;SDS011;6683;48.506;9.050;2023-06-22T10:21:36;4.68;;;4.15;;
13234;SDS011;6683;48.506;9.050;2023-06-22T10:24:40;5.05;;;3.90;;
13234;SDS011;6683;48.506;9.050;2023-06-22T10:27:44;5.28;;;4.20;;
13234;SDS011;6683;48.506;9.050;2023-06-22T10:30:47;4.88;;;4.18;;
13234;SDS011;6683;48.506;9.050;2023-06-22T10:33:50;6.20;;;4.20;;
13234;SDS011;6683;48.506;9.050;2023-06-22T10:36:53;4.78;;;4.20;;
13234;SDS011;6683;48.506;9.050;2023-06-22T10:39:57;5.10;;;4.15;;
13234;SDS011;6683;48.506;9.050;2023-06-22T10:43:00;4.80;;;4.07;;
13234;SDS011;6683;48.506;9.050;2023-06-22T10:46:03;5.35;;;4.47;;
13234;SDS011;6683;48.506;9.050;2023-06-22T10:49:05;4.28;;;3.88;;
13234;SDS011;6683;48.506;9.050;2023-06-22T10:52:08;6.03;;;4.40;;
13234;SDS011;6683;48.506;9.050;2023-06-22T10:55:12;4.70;;;4.05;;
13234;SDS011;6683;48.506;9.050;2023-06-22T10:58:14;4.55;;;4.10;;
13234;SDS011;6683;48.506;9.050;2023-06-22T11:01:16;4.75;;;4.30;;
13234;SDS011;6683;48.506;9.050;2023-06-22T11:04:19;4.97;;;4.45;;
13234;SDS011;6683;48.506;9.050;2023-06-22T11:07:21;4.95;;;4.03;;
13234;SDS011;6683;48.506;9.050;2023-06-22T11:10:25;6.63;;;4.70;;
13234;SDS011;6683;48.506;9.050;2023-06-22T11:13:28;6.20;;;4.72;;
13234;SDS011;6683;48.506;9.050;2023-06-22T11:16:30;5.13;;;4.10;;
13234;SDS011;6683;48.506;9.050;2023-06-22T11:19:34;5.80;;;4.43;;
13234;SDS011;6683;48.506;9.050;2023-06-22T11:22:37;4.75;;;4.25;;
13234;SDS011;6683;48.506;9.050;2023-06-22T11:25:42;5.05;;;3.90;;
13234;SDS011;6683;48.506;9.050;2023-06-22T11:28:44;7.20;;;4.45;;
13234;SDS011;6683;48.506;9.050;2023-06-22T11:31:47;5.93;;;4.60;;
13234;SDS011;6683;48.506;9.050;2023-06-22T11:34:49;5.35;;;4.18;;
13234;SDS011;6683;48.506;9.050;2023-06-22T11:37:52;5.93;;;4.43;;
13234;SDS011;6683;48.506;9.050;2023-06-22T11:40:57;5.30;;;4.28;;
13234;SDS011;6683;48.506;9.050;2023-06-22T11:44:00;5.03;;;4.25;;
13234;SDS011;6683;48.506;9.050;2023-06-22T11:47:04;6.40;;;4.45;;
13234;SDS011;6683;48.506;9.050;2023-06-22T11:50:07;7.82;;;4.30;;
13234;SDS011;6683;48.506;9.050;2023-06-22T11:53:10;4.78;;;4.20;;
13234;SDS011;6683;48.506;9.050;2023-06-22T11:56:17;6.18;;;4.15;;
13234;SDS011;6683;48.506;9.050;2023-06-22T11:59:20;5.82;;;4.28;;
13234;SDS011;6683;48.506;9.050;2023-06-22T12:02:22;5.50;;;4.55;;
13234;SDS011;6683;48.506;9.050;2023-06-22T12:05:25;7.20;;;5.03;;
13234;SDS011;6683;48.506;9.050;2023-06-22T12:08:27;7.75;;;4.32;;
13234;SDS011;6683;48.506;9.050;2023-06-22T12:11:31;7.38;;;4.20;;
13234;SDS011;6683;48.506;9.050;2023-06-22T12:14:33;5.88;;;3.95;;
13234;SDS011;6683;48.506;9.050;2023-06-22T12:17:36;5.47;;;4.57;;
13234;SDS011;6683;48.506;9.050;2023-06-22T12:20:39;4.85;;;4.13;;
13234;SDS011;6683;48.506;9.050;2023-06-22T12:23:41;5.72;;;4.38;;
13234;SDS011;6683;48.506;9.050;2023-06-22T12:26:45;6.05;;;5.13;;
13234;SDS011;6683;48.506;9.050;2023-06-22T12:29:47;7.45;;;4.68;;
13234;SDS011;6683;48.506;9.050;2023-06-22T12:32:50;6.13;;;4.78;;
13234;SDS011;6683;48.506;9.050;2023-06-22T12:35:52;6.40;;;4.13;;
13234;SDS011;6683;48.506;9.050;2023-06-22T12:38:54;4.25;;;3.85;;
13234;SDS011;6683;48.506;9.050;2023-06-22T12:41:58;4.57;;;4.20;;
13234;SDS011;6683;48.506;9.050;2023-06-22T12:45:01;4.47;;;4.07;;
13234;SDS011;6683;48.506;9.050;2023-06-22T12:48:04;4.55;;;4.13;;
13234;SDS011;6683;48.506;9.050;2023-06-22T12:51:08;5.25;;;4.32;;
13234;SDS011;6683;48.506;9.050;2023-06-22T12:54:11;4.70;;;4.15;;
13234;SDS011;6683;48.506;9.050;2023-06-22T12:57:15;6.10;;;4.38;;
13234;SDS011;6683;48.506;9.050;2023-06-22T13:00:17;6.07;;;4.88;;
13234;SDS011;6683;48.506;9.050;2023-06-22T13:03:20;7.95;;;4.50;;
13234;SDS011;6683;48.506;9.050;2023-06-22T13:06:24;5.22;;;4.40;;
13234;SDS011;6683;48.506;9.050;2023-06-22T13:09:26;4.50;;;4.10;;
13234;SDS011;6683;48.506;9.050;2023-06-22T13:12:32;7.10;;;4.43;;
13234;SDS011;6683;48.506;9.050;2023-06-22T13:15:34;5.38;;;4.57;;
13234;SDS011;6683;48.506;9.050;2023-06-22T13:18:36;6.32;;;4.38;;
13234;SDS011;6683;48.506;9.050;2023-06-22T13:21:39;6.72;;;4.43;;
13234;SDS011;6683;48.506;9.050;2023-06-22T13:24:42;6.63;;;4.43;;
13234;SDS011;6683;48.506;9.050;2023-06-22T13:27:46;6.63;;;4.20;;
13234;SDS011;6683;48.506;9.050;2023-06-22T13:30:48;4.97;;;3.92;;
13234;SDS011;6683;48.506;9.050;2023-06-22T13:33:50;4.50;;;3.90;;
13234;SDS011;6683;48.506;9.050;2023-06-22T13:36:53;5.18;;;4.30;;
13234;SDS011;6683;48.506;9.050;2023-06-22T13:39:55;7.15;;;4.10;;
13234;SDS011;6683;48.506;9.050;2023-06-22T13:43:00;6.18;;;4.22;;
13234;SDS011;6683;48.506;9.050;2023-06-22T13:46:03;5.63;;;4.25;;
13234;SDS011;6683;48.506;9.050;2023-06-22T13:49:06;7.13;;;4.15;;
13234;SDS011;6683;48.506;9.050;2023-06-22T13:52:08;5.68;;;4.28;;
13234;SDS011;6683;48.506;9.050;2023-06-22T13:55:12;7.43;;;4.30;;
13234;SDS011;6683;48.506;9.050;2023-06-22T13:58:17;6.22;;;4.00;;
13234;SDS011;6683;48.506;9.050;2023-06-22T14:01:20;7.05;;;4.40;;
13234;SDS011;6683;48.506;9.050;2023-06-22T14:04:23;5.63;;;4.28;;
13234;SDS011;6683;48.506;9.050;2023-06-22T14:07:26;7.30;;;4.45;;
13234;SDS011;6683;48.506;9.050;2023-06-22T14:10:28;5.68;;;4.03;;
13234;SDS011;6683;48.506;9.050;2023-06-22T14:13:32;6.90;;;4.30;;
13234;SDS011;6683;48.506;9.050;2023-06-22T14:16:35;7.13;;;4.78;;
13234;SDS011;6683;48.506;9.050;2023-06-22T14:19:38;8.35;;;4.50;;
13234;SDS011;6683;48.506;9.050;2023-06-22T14:22:40;4.90;;;4.40;;
13234;SDS011;6683;48.506;9.050;2023-06-22T14:25:43;6.32;;;4.72;;
13234;SDS011;6683;48.506;9.050;2023-06-22T14:28:47;5.43;;;4.30;;
13234;SDS011;6683;48.506;9.050;2023-06-22T14:31:50;5.45;;;4.45;;
13234;SDS011;6683;48.506;9.050;2023-06-22T14:34:52;6.85;;;4.50;;
13234;SDS011;6683;48.506;9.050;2023-06-22T14:37:55;7.47;;;4.70;;
13234;SDS011;6683;48.506;9.050;2023-06-22T14:40:57;5.53;;;4.88;;
13234;SDS011;6683;48.506;9.050;2023-06-22T14:44:01;7.13;;;4.75;;
13234;SDS011;6683;48.506;9.050;2023-06-22T14:47:04;5.47;;;4.40;;
13234;SDS011;6683;48.506;9.050;2023-06-22T14:50:07;4.90;;;3.90;;
13234;SDS011;6683;48.506;9.050;2023-06-22T14:53:10;6.25;;;4.10;;
13234;SDS011;6683;48.506;9.050;2023-06-22T14:56:14;6.80;;;3.85;;
13234;SDS011;6683;48.506;9.050;2023-06-22T14:59:18;5.72;;;3.50;;
13234;SDS011;6683;48.506;9.050;2023-06-22T15:02:20;5.55;;;3.63;;
13234;SDS011;6683;48.506;9.050;2023-06-22T15:05:23;6.57;;;3.60;;
13234;SDS011;6683;48.506;9.050;2023-06-22T15:08:25;5.22;;;3.00;;
13234;SDS011;6683;48.506;9.050;2023-06-22T15:11:28;5.40;;;2.60;;
13234;SDS011;6683;48.506;9.050;2023-06-22T15:14:31;5.50;;;3.20;;
13234;SDS011;6683;48.506;9.050;2023-06-22T15:17:33;3.20;;;2.58;;
13234;SDS011;6683;48.506;9.050;2023-06-22T15:20:36;5.43;;;2.80;;
13234;SDS011;6683;48.506;9.050;2023-06-22T15:23:39;7.95;;;3.25;;
13234;SDS011;6683;48.506;9.050;2023-06-22T15:26:41;4.07;;;2.28;;
13234;SDS011;6683;48.506;9.050;2023-06-22T15:29:45;6.50;;;2.78;;
13234;SDS011;6683;48.506;9.050;2023-06-22T15:32:48;5.35;;;2.55;;
13234;SDS011;6683;48.506;9.050;2023-06-22T15:35:50;5.60;;;2.60;;
13234;SDS011;6683;48.506;9.050;2023-06-22T15:38:54;4.78;;;2.60;;
13234;SDS011;6683;48.506;9.050;2023-06-22T15:41:56;3.65;;;2.40;;
13234;SDS011;6683;48.506;9.050;2023-06-22T15:45:01;6.25;;;2.78;;
13234;SDS011;6683;48.506;9.050;2023-06-22T15:48:03;7.38;;;2.70;;
13234;SDS011;6683;48.506;9.050;2023-06-22T15:51:05;4.10;;;2.58;;
13234;SDS011;6683;48.506;9.050;2023-06-22T15:54:08;5.38;;;2.53;;
13234;SDS011;6683;48.506;9.050;2023-06-22T15:57:10;5.35;;;2.40;;
13234;SDS011;6683;48.506;9.050;2023-06-22T16:00:15;5.45;;;2.90;;
13234;SDS011;6683;48.506;9.050;2023-06-22T16:03:19;3.58;;;2.53;;
13234;SDS011;6683;48.506;9.050;2023-06-22T16:06:22;4.10;;;2.85;;
13234;SDS011;6683;48.506;9.050;2023-06-22T16:09:24;6.05;;;2.42;;
13234;SDS011;6683;48.506;9.050;2023-06-22T16:12:27;6.53;;;3.08;;
13234;SDS011;6683;48.506;9.050;2023-06-22T16:15:31;4.00;;;2.55;;
13234;SDS011;6683;48.506;9.050;2023-06-22T16:18:33;4.53;;;2.70;;
13234;SDS011;6683;48.506;9.050;2023-06-22T16:21:36;6.53;;;2.80;;
13234;SDS011;6683;48.506;9.050;2023-06-22T16:24:39;5.40;;;2.55;;
13234;SDS011;6683;48.506;9.050;2023-06-22T16:27:41;9.07;;;3.03;;
13234;SDS011;6683;48.506;9.050;2023-06-22T16:30:47;3.60;;;2.35;;
13234;SDS011;6683;48.506;9.050;2023-06-22T16:33:50;6.35;;;3.13;;
13234;SDS011;6683;48.506;9.050;2023-06-22T16:36:52;6.28;;;3.03;;
13234;SDS011;6683;48.506;9.050;2023-06-22T16:39:54;5.65;;;2.60;;
13234;SDS011;6683;48.506;9.050;2023-06-22T16:42:57;6.25;;;3.35;;
13234;SDS011;6683;48.506;9.050;2023-06-22T16:46:01;3.53;;;2.70;;
13234;SDS011;6683;48.506;9.050;2023-06-22T16:49:03;3.80;;;2.78;;
13234;SDS011;6683;48.506;9.050;2023-06-22T16:52:06;5.72;;;2.75;;
13234;SDS011;6683;48.506;9.050;2023-06-22T16:55:10;8.15;;;3.25;;
13234;SDS011;6683;48.506;9.050;2023-06-22T16:58:12;3.83;;;2.47;;
13234;SDS011;6683;48.506;9.050;2023-06-22T17:01:18;6.15;;;2.78;;
13234;SDS011;6683;48.506;9.050;2023-06-22T17:04:23;6.13;;;3.05;;
13234;SDS011;6683;48.506;9.050;2023-06-22T17:07:27;6.55;;;2.63;;
13234;SDS011;6683;48.506;9.050;2023-06-22T17:10:34;5.80;;;2.50;;
13234;SDS011;6683;48.506;9.050;2023-06-22T17:13:36;8.40;;;3.10;;
13234;SDS011;6683;48.506;9.050;2023-06-22T17:16:41;5.50;;;2.92;;
13234;SDS011;6683;48.506;9.050;2023-06-22T17:19:46;4.05;;;2.22;;
13234;SDS011;6683;48.506;9.050;2023-06-22T17:22:48;4.28;;;2.88;;
13234;SDS011;6683;48.506;9.050;2023-06-22T17:25:50;4.10;;;2.10;;
13234;SDS011;6683;48.506;9.050;2023-06-22T17:28:54;4.35;;;2.28;;
13234;SDS011;6683;48.506;9.050;2023-06-22T17:32:03;2.75;;;2.13;;
13234;SDS011;6683;48.506;9.050;2023-06-22T17:35:08;6.72;;;2.47;;
13234;SDS011;6683;48.506;9.050;2023-06-22T17:38:15;4.45;;;2.17;;
13234;SDS011;6683;48.506;9.050;2023-06-22T17:41:22;9.52;;;2.20;;
13234;SDS011;6683;48.506;9.050;2023-06-22T17:44:33;4.68;;;2.33;;
13234;SDS011;6683;48.506;9.050;2023-06-22T17:47:37;4.55;;;2.10;;
13234;SDS011;6683;48.506;9.050;2023-06-22T17:50:40;5.82;;;2.20;;
13234;SDS011;6683;48.506;9.050;2023-06-22T17:53:47;4.25;;;2.22;;
13234;SDS011;6683;48.506;9.050;2023-06-22T17:56:50;5.22;;;2.30;;
13234;SDS011;6683;48.506;9.050;2023-06-22T17:59:53;4.07;;;1.77;;
13234;SDS011;6683;48.506;9.050;2023-06-22T18:02:57;4.35;;;2.38;;
13234;SDS011;6683;48.506;9.050;2023-06-22T18:05:59;4.18;;;2.42;;
13234;SDS011;6683;48.506;9.050;2023-06-22T18:09:03;4.72;;;2.25;;
13234;SDS011;6683;48.506;9.050;2023-06-22T18:12:08;7.22;;;2.80;;
13234;SDS011;6683;48.506;9.050;2023-06-22T18:15:11;3.83;;;2.00;;
13234;SDS011;6683;48.506;9.050;2023-06-22T18:18:16;4.55;;;2.17;;
13234;SDS011;6683;48.506;9.050;2023-06-22T18:21:19;3.05;;;2.03;;
13234;SDS011;6683;48.506;9.050;2023-06-22T18:24:22;8.02;;;2.97;;
13234;SDS011;6683;48.506;9.050;2023-06-22T18:27:25;5.13;;;2.28;;
13234;SDS011;6683;48.506;9.050;2023-06-22T18:30:29;2.78;;;2.20;;
13234;SDS011;6683;48.506;9.050;2023-06-22T18:33:33;6.60;;;2.40;;
13234;SDS011;6683;48.506;9.050;2023-06-22T18:36:36;5.75;;;2.10;;
13234;SDS011;6683;48.506;9.050;2023-06-22T18:39:43;3.80;;;2.25;;